createdAt,value
2023-12-13T00:02:03.035Z,2.47
2023-12-13T00:04:30.522Z,2.67
2023-12-13T00:06:57.955Z,2.55
2023-12-13T00:09:25.398Z,3.15
2023-12-13T00:11:52.803Z,3.22
2023-12-13T00:14:21.980Z,2.85
2023-12-13T00:16:49.442Z,3.22
2023-12-13T00:19:18.379Z,3.05
2023-12-13T00:21:46.302Z,2.80
2023-12-13T00:24:13.874Z,2.88
2023-12-13T00:26:41.950Z,3.58
2023-12-13T00:29:09.726Z,3.13
2023-12-13T00:31:37.350Z,3.55
2023-12-13T00:34:05.825Z,3.00
2023-12-13T00:36:34.838Z,3.45
2023-12-13T00:39:02.243Z,2.97
2023-12-13T00:41:29.647Z,2.97
2023-12-13T00:43:57.111Z,3.97
2023-12-13T00:46:24.660Z,3.85
2023-12-13T00:48:52.237Z,3.40
2023-12-13T00:51:21.401Z,3.28
2023-12-13T00:53:50.745Z,3.85
2023-12-13T00:56:18.882Z,3.47
2023-12-13T00:58:48.630Z,2.90
2023-12-13T01:01:17.359Z,3.83
2023-12-13T01:03:44.861Z,3.22
2023-12-13T01:06:12.510Z,2.97
2023-12-13T01:08:40.118Z,3.70
2023-12-13T01:11:12.819Z,2.67
2023-12-13T01:13:40.609Z,3.72
2023-12-13T01:16:08.648Z,3.63
2023-12-13T01:18:36.588Z,3.45
2023-12-13T01:21:04.415Z,3.40
2023-12-13T01:23:32.015Z,3.22
2023-12-13T01:25:59.451Z,4.47
2023-12-13T01:28:28.228Z,3.25
2023-12-13T01:30:55.886Z,3.88
2023-12-13T01:33:23.435Z,3.90
2023-12-13T01:35:51.011Z,3.88
2023-12-13T01:38:18.497Z,3.85
2023-12-13T01:41:10.801Z,4.07
2023-12-13T01:43:41.406Z,4.05
2023-12-13T01:46:09.797Z,3.53
2023-12-13T01:48:37.960Z,4.72
2023-12-13T01:51:05.718Z,3.65
2023-12-13T01:53:35.188Z,3.75
2023-12-13T01:56:04.666Z,3.97
2023-12-13T01:58:32.188Z,3.67
2023-12-13T02:01:00.982Z,3.42
2023-12-13T02:03:28.639Z,3.70
2023-12-13T02:05:56.041Z,3.65
2023-12-13T02:08:24.219Z,3.75
2023-12-13T02:10:51.957Z,3.20
2023-12-13T02:13:19.558Z,4.20
2023-12-13T02:15:47.721Z,4.03
2023-12-13T02:18:16.800Z,3.53
2023-12-13T02:20:44.366Z,4.10
2023-12-13T02:23:13.397Z,5.15
2023-12-13T02:25:57.959Z,3.95
2023-12-13T02:28:26.695Z,4.80
2023-12-13T02:30:56.079Z,4.13
2023-12-13T02:33:24.916Z,3.45
2023-12-13T02:35:52.884Z,4.15
2023-12-13T02:38:21.670Z,3.50
2023-12-13T02:40:49.211Z,4.20
2023-12-13T02:43:16.901Z,4.57
2023-12-13T02:45:44.441Z,4.85
2023-12-13T02:48:12.016Z,4.60
2023-12-13T02:50:40.235Z,4.10
2023-12-13T02:53:08.195Z,4.05
2023-12-13T02:55:36.923Z,4.80
2023-12-13T02:58:05.865Z,4.72
2023-12-13T03:00:33.426Z,4.55
2023-12-13T03:03:00.982Z,4.93
2023-12-13T03:05:28.480Z,4.32
2023-12-13T03:07:56.177Z,4.47
2023-12-13T03:10:23.768Z,4.13
2023-12-13T03:12:52.537Z,4.38
2023-12-13T03:15:19.940Z,4.22
2023-12-13T03:17:47.465Z,4.45
2023-12-13T03:20:14.081Z,4.60
2023-12-13T03:22:41.542Z,5.55
2023-12-13T03:25:09.575Z,4.22
2023-12-13T03:27:37.318Z,4.38
2023-12-13T03:30:07.335Z,5.03
2023-12-13T03:32:34.768Z,4.65
2023-12-13T03:35:02.227Z,3.92
2023-12-13T03:37:32.987Z,3.97
2023-12-13T03:40:00.688Z,4.13
2023-12-13T03:42:28.270Z,5.05
2023-12-13T03:44:57.153Z,3.90
2023-12-13T03:47:26.020Z,3.80
2023-12-13T03:49:53.780Z,4.65
2023-12-13T03:52:21.220Z,4.63
2023-12-13T03:54:48.629Z,4.28
2023-12-13T03:57:16.677Z,3.50
2023-12-13T03:59:44.135Z,4.22
2023-12-13T04:02:11.625Z,3.92
2023-12-13T04:04:40.538Z,3.92
2023-12-13T04:07:09.471Z,4.40
2023-12-13T04:09:37.033Z,4.10
2023-12-13T04:12:05.232Z,4.10
2023-12-13T04:14:32.654Z,3.58
2023-12-13T04:17:00.137Z,4.13
2023-12-13T04:19:27.581Z,3.95
2023-12-13T04:21:56.355Z,4.13
2023-12-13T04:24:23.765Z,5.30
2023-12-13T04:26:51.211Z,3.42
2023-12-13T04:29:18.672Z,3.63
2023-12-13T04:31:46.107Z,3.25
2023-12-13T04:34:13.656Z,3.67
2023-12-13T04:36:41.155Z,4.68
2023-12-13T04:39:09.909Z,3.40
2023-12-13T04:41:39.637Z,3.40
2023-12-13T04:44:08.876Z,3.00
2023-12-13T04:46:36.946Z,2.95
2023-12-13T04:49:04.600Z,2.85
2023-12-13T04:51:32.047Z,3.25
2023-12-13T04:53:59.852Z,3.45
2023-12-13T04:56:28.723Z,2.63
2023-12-13T04:58:56.195Z,2.95
2023-12-13T05:01:23.697Z,2.67
2023-12-13T05:03:51.245Z,2.75
2023-12-13T05:06:18.741Z,2.60
2023-12-13T05:08:46.215Z,3.65
2023-12-13T05:11:13.652Z,3.08
2023-12-13T05:13:42.544Z,3.35
2023-12-13T05:16:10.594Z,2.75
2023-12-13T05:18:38.065Z,3.80
2023-12-13T05:21:06.139Z,3.20
2023-12-13T05:23:33.553Z,2.85
2023-12-13T05:26:00.986Z,3.28
2023-12-13T05:28:29.509Z,3.40
2023-12-13T05:30:58.467Z,3.55
2023-12-13T05:33:25.997Z,3.40
2023-12-13T05:35:53.478Z,3.45
2023-12-13T05:38:21.323Z,3.00
2023-12-13T05:40:48.814Z,3.28
2023-12-13T05:43:16.289Z,3.38
2023-12-13T05:45:43.740Z,2.60
2023-12-13T05:48:14.070Z,3.15
2023-12-13T05:50:41.547Z,3.88
2023-12-13T05:53:09.010Z,3.88
2023-12-13T05:55:36.458Z,3.60
2023-12-13T05:58:03.949Z,2.83
2023-12-13T06:00:31.873Z,3.22
2023-12-13T06:03:00.311Z,4.32
2023-12-13T06:05:29.205Z,3.10
2023-12-13T06:07:57.461Z,3.33
2023-12-13T06:10:24.979Z,3.50
2023-12-13T06:12:53.926Z,3.25
2023-12-13T06:15:22.561Z,2.85
2023-12-13T06:17:50.109Z,3.28
2023-12-13T06:20:17.862Z,3.33
2023-12-13T06:22:46.735Z,3.03
2023-12-13T06:25:14.381Z,3.40
2023-12-13T06:27:41.857Z,3.35
2023-12-13T06:30:13.310Z,3.42
2023-12-13T06:32:40.844Z,4.05
2023-12-13T06:35:08.903Z,4.05
2023-12-13T06:37:36.682Z,3.95
2023-12-13T06:40:06.855Z,5.13
2023-12-13T06:42:34.448Z,3.35
2023-12-13T06:45:02.049Z,3.08
2023-12-13T06:47:30.794Z,2.90
2023-12-13T06:49:58.468Z,3.40
2023-12-13T06:52:26.226Z,3.15
2023-12-13T06:54:58.272Z,2.90
2023-12-13T06:57:26.987Z,3.30
2023-12-13T06:59:54.399Z,3.28
2023-12-13T07:02:21.914Z,4.22
2023-12-13T07:04:49.385Z,2.97
2023-12-13T07:07:17.086Z,2.92
2023-12-13T07:09:45.537Z,3.38
2023-12-13T07:12:13.402Z,3.22
2023-12-13T07:14:42.150Z,3.67
2023-12-13T07:17:09.923Z,3.10
2023-12-13T07:19:37.584Z,3.42
2023-12-13T07:22:05.463Z,3.40
2023-12-13T07:24:32.876Z,4.00
2023-12-13T07:27:00.317Z,2.58
2023-12-13T07:29:27.757Z,3.53
2023-12-13T07:31:56.641Z,3.67
2023-12-13T07:34:24.853Z,3.05
2023-12-13T07:36:54.600Z,3.25
2023-12-13T07:39:22.115Z,2.83
2023-12-13T07:41:49.526Z,4.28
2023-12-13T07:44:17.975Z,3.50
2023-12-13T07:46:45.474Z,3.60
2023-12-13T07:49:14.390Z,4.20
2023-12-13T07:51:41.873Z,4.00
2023-12-13T07:54:10.381Z,3.60
2023-12-13T07:56:37.857Z,3.00
2023-12-13T07:59:05.393Z,2.90
2023-12-13T08:01:33.300Z,3.47
2023-12-13T08:04:00.804Z,3.60
2023-12-13T08:06:30.251Z,3.42
2023-12-13T08:08:57.695Z,3.85
2023-12-13T08:11:25.166Z,4.43
2023-12-13T08:13:53.392Z,3.60
2023-12-13T08:16:20.926Z,4.15
2023-12-13T08:18:49.317Z,3.28
2023-12-13T08:21:16.795Z,3.10
2023-12-13T08:23:46.301Z,3.13
2023-12-13T08:26:14.376Z,3.20
2023-12-13T08:28:42.283Z,3.25
2023-12-13T08:31:17.570Z,3.25
2023-12-13T08:33:51.703Z,3.33
2023-12-13T08:36:19.372Z,3.20
2023-12-13T08:38:48.135Z,3.33
2023-12-13T08:41:17.174Z,3.45
2023-12-13T08:43:44.976Z,3.15
2023-12-13T08:46:13.236Z,2.95
2023-12-13T08:48:40.791Z,3.33
2023-12-13T08:51:08.301Z,2.83
2023-12-13T08:53:36.265Z,2.40
2023-12-13T08:56:06.208Z,2.92
2023-12-13T08:58:33.848Z,3.22
2023-12-13T09:01:03.032Z,3.05
2023-12-13T09:03:31.286Z,2.63
2023-12-13T09:05:58.713Z,2.20
2023-12-13T09:08:27.265Z,3.10
2023-12-13T09:10:54.726Z,2.60
2023-12-13T09:13:23.513Z,2.95
2023-12-13T09:15:50.937Z,2.47
2023-12-13T09:18:18.727Z,2.83
2023-12-13T09:20:47.001Z,2.80
2023-12-13T09:23:22.141Z,2.42
2023-12-13T09:25:49.839Z,2.80
2023-12-13T09:28:17.435Z,3.13
2023-12-13T09:30:46.621Z,2.97
2023-12-13T09:33:14.987Z,3.00
2023-12-13T09:35:44.911Z,2.45
2023-12-13T09:38:12.427Z,3.15
2023-12-13T09:40:40.008Z,2.25
2023-12-13T09:43:08.232Z,2.50
2023-12-13T09:45:38.020Z,2.42
2023-12-13T09:48:09.100Z,2.95
2023-12-13T09:50:38.366Z,2.97
2023-12-13T09:53:06.960Z,3.08
2023-12-13T09:55:37.668Z,2.78
2023-12-13T09:58:05.321Z,2.88
2023-12-13T10:00:33.221Z,2.83
2023-12-13T10:03:00.677Z,2.95
2023-12-13T10:05:30.453Z,2.70
2023-12-13T10:08:03.453Z,2.97
2023-12-13T10:10:32.336Z,3.08
2023-12-13T10:13:01.325Z,3.50
2023-12-13T10:15:31.616Z,2.63
2023-12-13T10:18:00.327Z,2.90
2023-12-13T10:20:31.225Z,2.58
2023-12-13T10:22:58.976Z,2.80
2023-12-13T10:25:26.481Z,2.83
2023-12-13T10:27:55.247Z,3.30
2023-12-13T10:30:23.836Z,2.67
2023-12-13T10:32:51.697Z,2.85
2023-12-13T10:35:20.704Z,2.58
2023-12-13T10:37:51.416Z,2.42
2023-12-13T10:40:21.570Z,2.30
2023-12-13T10:42:53.750Z,2.92
2023-12-13T10:45:22.740Z,2.70
2023-12-13T10:47:52.319Z,2.80
2023-12-13T10:50:23.368Z,3.28
2023-12-13T10:52:53.593Z,2.88
2023-12-13T10:55:21.470Z,2.95
2023-12-13T10:57:49.757Z,2.70
2023-12-13T11:00:18.805Z,2.78
2023-12-13T11:02:53.004Z,2.30
2023-12-13T11:05:21.242Z,2.50
2023-12-13T11:07:48.992Z,2.85
2023-12-13T11:10:17.863Z,3.80
2023-12-13T11:12:50.650Z,2.55
2023-12-13T11:15:18.950Z,2.17
2023-12-13T11:17:49.611Z,2.58
2023-12-13T11:20:18.763Z,2.55
2023-12-13T11:22:48.994Z,3.17
2023-12-13T11:25:18.892Z,2.53
2023-12-13T11:27:53.096Z,2.50
2023-12-13T11:30:23.441Z,2.33
2023-12-13T11:32:52.895Z,2.45
2023-12-13T11:35:22.256Z,3.08
2023-12-13T11:37:50.491Z,2.65
2023-12-13T11:40:19.751Z,2.97
2023-12-13T11:42:47.518Z,2.40
2023-12-13T11:45:15.065Z,2.83
2023-12-13T11:47:48.021Z,3.05
2023-12-13T11:50:17.671Z,2.97
2023-12-13T11:52:46.267Z,2.65
2023-12-13T11:55:17.635Z,2.80
2023-12-13T11:57:48.374Z,2.55
2023-12-13T12:00:19.473Z,2.83
2023-12-13T12:02:47.253Z,2.90
2023-12-13T12:05:15.029Z,3.00
2023-12-13T12:07:42.754Z,2.60
2023-12-13T12:10:11.929Z,2.58
2023-12-13T12:12:39.577Z,3.17
2023-12-13T12:15:12.223Z,2.70
2023-12-13T12:17:40.028Z,2.58
2023-12-13T12:20:08.802Z,1.02
2023-12-13T12:22:38.118Z,0.80
2023-12-13T12:25:06.663Z,0.57
2023-12-13T12:27:36.902Z,0.70
2023-12-13T12:30:05.050Z,0.73
2023-12-13T12:32:33.853Z,0.80
2023-12-13T12:35:03.763Z,0.90
2023-12-13T12:37:31.639Z,0.73
2023-12-13T12:39:59.312Z,0.70
2023-12-13T12:42:27.871Z,0.50
2023-12-13T12:44:55.293Z,1.05
2023-12-13T12:47:23.320Z,1.05
2023-12-13T12:49:56.033Z,2.25
2023-12-13T12:52:27.235Z,1.20
2023-12-13T12:54:55.786Z,0.70
2023-12-13T12:57:30.916Z,1.33
2023-12-13T12:59:58.773Z,0.80
2023-12-13T13:02:29.312Z,0.75
2023-12-13T13:04:58.777Z,0.90
2023-12-13T13:07:26.845Z,1.02
2023-12-13T13:09:56.573Z,0.82
2023-12-13T13:12:29.510Z,0.77
2023-12-13T13:14:57.896Z,0.77
2023-12-13T13:17:26.111Z,0.85
2023-12-13T13:19:53.650Z,0.45
2023-12-13T13:22:25.615Z,0.73
2023-12-13T13:24:53.344Z,0.70
2023-12-13T13:27:27.987Z,1.17
2023-12-13T13:29:56.528Z,0.50
2023-12-13T13:32:24.155Z,0.63
2023-12-13T13:34:51.650Z,0.85
2023-12-13T13:37:19.217Z,0.57
2023-12-13T13:39:49.226Z,0.85
2023-12-13T13:42:17.715Z,0.82
2023-12-13T13:44:45.399Z,0.80
2023-12-13T13:47:14.663Z,0.85
2023-12-13T13:49:42.336Z,0.70
2023-12-13T13:52:10.420Z,0.60
2023-12-13T13:54:37.861Z,0.73
2023-12-13T13:57:07.124Z,0.80
2023-12-13T13:59:34.714Z,0.80
2023-12-13T14:02:02.226Z,1.58
2023-12-13T14:04:29.812Z,0.70
2023-12-13T14:06:57.462Z,1.00
2023-12-13T14:09:24.948Z,1.40
2023-12-13T14:11:53.434Z,0.50
2023-12-13T14:14:23.285Z,0.98
2023-12-13T14:16:50.823Z,1.02
2023-12-13T14:19:18.444Z,1.00
2023-12-13T14:21:46.231Z,0.98
2023-12-13T14:24:13.648Z,0.90
2023-12-13T14:26:41.077Z,1.13
2023-12-13T14:29:08.527Z,0.90
2023-12-13T14:31:37.957Z,1.17
2023-12-13T14:34:05.517Z,0.70
2023-12-13T14:36:33.162Z,1.05
2023-12-13T14:39:00.657Z,1.05
2023-12-13T14:41:29.587Z,0.70
2023-12-13T14:43:57.168Z,0.80
2023-12-13T14:46:24.816Z,0.93
2023-12-13T14:48:54.271Z,1.00
2023-12-13T14:51:22.699Z,1.13
2023-12-13T14:53:51.524Z,0.98
2023-12-13T14:56:20.156Z,0.80
2023-12-13T14:58:47.558Z,1.08
2023-12-13T15:01:16.247Z,1.10
2023-12-13T15:03:43.741Z,1.10
2023-12-13T15:06:12.664Z,1.08
2023-12-13T15:08:40.674Z,0.80
2023-12-13T15:11:08.357Z,1.30
2023-12-13T15:13:36.493Z,0.95
2023-12-13T15:16:05.819Z,1.48
2023-12-13T15:18:34.170Z,1.00
2023-12-13T15:21:01.699Z,1.13
2023-12-13T15:23:30.676Z,1.08
2023-12-13T15:25:58.253Z,1.10
2023-12-13T15:28:25.928Z,1.13
2023-12-13T15:30:53.448Z,1.50
2023-12-13T15:33:21.297Z,4.05
2023-12-13T15:35:48.785Z,3.28
2023-12-13T15:38:16.319Z,4.75
2023-12-13T15:40:46.200Z,4.32
2023-12-13T15:43:13.626Z,5.10
2023-12-13T15:45:42.774Z,3.72
2023-12-13T15:48:11.280Z,4.32
2023-12-13T15:50:39.147Z,4.63
2023-12-13T15:53:08.614Z,4.72
2023-12-13T15:55:36.141Z,4.38
2023-12-13T15:58:05.031Z,4.55
2023-12-13T16:00:32.433Z,5.78
2023-12-13T16:03:00.900Z,5.20
2023-12-13T16:05:28.656Z,4.70
2023-12-13T16:07:56.312Z,4.82
2023-12-13T16:10:23.888Z,5.47
2023-12-13T16:12:51.520Z,5.80
2023-12-13T16:15:21.173Z,4.97
2023-12-13T16:17:49.346Z,4.78
2023-12-13T16:20:17.076Z,4.88
2023-12-13T16:22:44.685Z,5.47
2023-12-13T16:25:12.171Z,5.43
2023-12-13T16:27:40.138Z,5.60
2023-12-13T16:30:08.804Z,5.05
2023-12-13T16:32:38.092Z,5.05
2023-12-13T16:35:06.540Z,5.38
2023-12-13T16:37:37.098Z,5.53
2023-12-13T16:40:05.611Z,4.68
2023-12-13T16:42:33.222Z,5.00
2023-12-13T16:45:00.774Z,4.97
2023-12-13T16:47:28.261Z,5.00
2023-12-13T16:49:57.887Z,5.93
2023-12-13T16:52:25.370Z,4.65
2023-12-13T16:54:52.800Z,4.97
2023-12-13T16:57:21.785Z,5.20
2023-12-13T16:59:49.220Z,6.07
2023-12-13T17:02:16.752Z,5.45
2023-12-13T17:05:06.342Z,5.63
2023-12-13T17:07:34.660Z,5.28
2023-12-13T17:10:02.391Z,8.85
2023-12-13T17:12:29.860Z,6.97
2023-12-13T17:15:03.442Z,5.18
2023-12-13T17:17:32.094Z,6.40
2023-12-13T17:19:59.656Z,5.10
2023-12-13T17:22:31.983Z,5.00
2023-12-13T17:25:00.072Z,5.63
2023-12-13T17:27:28.403Z,5.78
2023-12-13T17:29:55.854Z,4.93
2023-12-13T17:32:23.597Z,5.45
2023-12-13T17:34:51.105Z,5.93
2023-12-13T17:37:19.967Z,5.38
2023-12-13T17:39:48.917Z,5.80
2023-12-13T17:42:16.439Z,5.85
2023-12-13T17:44:43.923Z,6.03
2023-12-13T17:47:11.533Z,7.38
2023-12-13T17:49:40.211Z,7.03
2023-12-13T17:52:08.599Z,6.63
2023-12-13T17:54:36.122Z,6.05
2023-12-13T17:57:06.264Z,5.50
2023-12-13T17:59:34.059Z,6.93
2023-12-13T18:02:02.130Z,6.15
2023-12-13T18:04:34.463Z,6.45
2023-12-13T18:07:02.141Z,5.82
2023-12-13T18:09:30.246Z,5.75
2023-12-13T18:11:57.791Z,6.72
2023-12-13T18:14:26.530Z,6.43
2023-12-13T18:16:54.224Z,6.53
2023-12-13T18:19:21.718Z,6.60
2023-12-13T18:21:52.892Z,7.05
2023-12-13T18:24:21.438Z,6.18
2023-12-13T18:26:49.256Z,6.07
2023-12-13T18:29:16.707Z,6.03
2023-12-13T18:31:47.002Z,6.95
2023-12-13T18:34:14.599Z,7.45
2023-12-13T18:36:42.020Z,6.55
2023-12-13T18:39:10.496Z,6.07
2023-12-13T18:41:37.973Z,6.80
2023-12-13T18:44:05.599Z,7.47
2023-12-13T18:46:33.081Z,7.18
2023-12-13T18:49:01.908Z,6.68
2023-12-13T18:51:29.335Z,6.65
2023-12-13T18:53:57.172Z,7.20
2023-12-13T18:56:24.641Z,5.95
2023-12-13T18:58:52.105Z,6.47
2023-12-13T19:01:19.608Z,7.55
2023-12-13T19:03:47.066Z,6.68
2023-12-13T19:06:15.849Z,7.63
2023-12-13T19:08:43.272Z,6.95
2023-12-13T19:11:12.445Z,6.57
2023-12-13T19:13:40.025Z,7.63
2023-12-13T19:16:08.309Z,7.05
2023-12-13T19:18:36.200Z,5.97
2023-12-13T19:21:03.911Z,6.40
2023-12-13T19:23:32.666Z,6.63
2023-12-13T19:26:00.145Z,7.00
2023-12-13T19:28:27.629Z,7.25
2023-12-13T19:30:56.134Z,6.85
2023-12-13T19:33:23.808Z,6.88
2023-12-13T19:35:51.240Z,6.28
2023-12-13T19:38:18.947Z,7.60
2023-12-13T19:40:47.745Z,6.55
2023-12-13T19:43:15.189Z,7.80
2023-12-13T19:45:42.800Z,7.28
2023-12-13T19:48:10.354Z,7.95
2023-12-13T19:50:38.070Z,7.30
2023-12-13T19:53:05.628Z,6.07
2023-12-13T19:55:33.118Z,7.00
2023-12-13T19:58:01.903Z,6.85
2023-12-13T20:00:30.085Z,6.68
2023-12-13T20:02:58.239Z,7.47
2023-12-13T20:05:25.778Z,7.22
2023-12-13T20:07:53.366Z,7.05
2023-12-13T20:10:20.798Z,6.93
2023-12-13T20:12:48.269Z,7.30
2023-12-13T20:15:20.113Z,7.85
2023-12-13T20:17:47.616Z,6.53
2023-12-13T20:20:15.396Z,7.72
2023-12-13T20:22:42.976Z,6.38
2023-12-13T20:25:11.021Z,8.18
2023-12-13T20:27:40.114Z,7.00
2023-12-13T20:30:09.121Z,6.72
2023-12-13T20:32:39.569Z,8.57
2023-12-13T20:35:08.573Z,8.20
2023-12-13T20:37:37.645Z,7.47
2023-12-13T20:40:07.547Z,6.72
2023-12-13T20:42:36.957Z,7.65
2023-12-13T20:45:06.077Z,7.50
2023-12-13T20:47:35.834Z,7.95
2023-12-13T20:50:05.466Z,7.20
2023-12-13T20:52:32.990Z,9.65
2023-12-13T20:55:00.408Z,7.22
2023-12-13T20:57:28.097Z,6.43
2023-12-13T20:59:56.064Z,7.55
2023-12-13T21:02:24.050Z,7.75
2023-12-13T21:04:51.582Z,7.43
2023-12-13T21:07:21.069Z,7.97
2023-12-13T21:09:48.484Z,7.93
2023-12-13T21:12:17.091Z,7.30
2023-12-13T21:14:44.647Z,6.88
2023-12-13T21:17:12.088Z,7.82
2023-12-13T21:19:39.580Z,7.10
2023-12-13T21:22:07.147Z,8.13
2023-12-13T21:24:37.536Z,7.78
2023-12-13T21:27:05.328Z,7.00
2023-12-13T21:29:32.841Z,7.90
2023-12-13T21:32:00.442Z,9.68
2023-12-13T21:34:28.054Z,7.50
2023-12-13T21:36:55.511Z,7.55
2023-12-13T21:39:24.124Z,7.25
2023-12-13T21:41:52.859Z,8.23
2023-12-13T21:44:20.256Z,9.02
2023-12-13T21:46:49.060Z,7.63
2023-12-13T21:49:16.532Z,6.90
2023-12-13T21:51:44.147Z,8.23
2023-12-13T21:54:11.544Z,8.10
2023-12-13T21:56:39.088Z,7.60
2023-12-13T21:59:07.992Z,6.80
2023-12-13T22:01:35.829Z,8.00
2023-12-13T22:04:04.466Z,9.30
2023-12-13T22:06:31.961Z,7.57
2023-12-13T22:08:59.373Z,8.70
2023-12-13T22:11:27.163Z,6.95
2023-12-13T22:13:54.693Z,9.13
2023-12-13T22:16:23.510Z,7.78
2023-12-13T22:19:00.456Z,7.10
2023-12-13T22:21:28.174Z,6.68
2023-12-13T22:23:55.868Z,8.15
2023-12-13T22:26:23.340Z,7.97
2023-12-13T22:28:50.803Z,7.40
2023-12-13T22:31:18.279Z,7.43
2023-12-13T22:33:47.096Z,7.53
2023-12-13T22:36:14.680Z,7.70
2023-12-13T22:38:42.100Z,6.65
2023-12-13T22:41:09.525Z,7.70
2023-12-13T22:43:36.967Z,6.55
2023-12-13T22:46:04.989Z,6.55
2023-12-13T22:48:32.388Z,6.60
2023-12-13T22:51:01.128Z,8.23
2023-12-13T22:53:28.523Z,6.93
2023-12-13T22:55:55.989Z,7.25
2023-12-13T22:58:23.651Z,6.60
2023-12-13T23:00:51.103Z,6.72
2023-12-13T23:03:18.548Z,5.40
2023-12-13T23:05:46.016Z,5.30
2023-12-13T23:08:14.819Z,5.97
2023-12-13T23:10:42.400Z,6.57
2023-12-13T23:13:09.873Z,6.93
2023-12-13T23:15:37.323Z,5.97
2023-12-13T23:18:05.003Z,7.10
2023-12-13T23:20:32.634Z,6.47
2023-12-13T23:23:00.744Z,5.65
2023-12-13T23:25:29.579Z,8.50
2023-12-13T23:27:57.408Z,5.50
2023-12-13T23:30:24.858Z,6.82
2023-12-13T23:32:52.291Z,5.55
2023-12-13T23:35:20.304Z,6.70
2023-12-13T23:37:47.798Z,5.95
2023-12-13T23:40:15.281Z,6.07
2023-12-13T23:42:44.039Z,6.82
2023-12-13T23:45:11.934Z,7.40
2023-12-13T23:47:39.328Z,6.85
2023-12-13T23:50:07.845Z,6.80
2023-12-13T23:52:35.728Z,6.60
2023-12-13T23:55:03.325Z,7.07
2023-12-13T23:57:30.754Z,6.80
2023-12-13T23:59:59.521Z,7.28
